sensor_id;sensor_type;location;lat;lon;timestamp;temperature;humidity
13892;DHT22;7016;48.172;8.058;2023-05-07T00:00:05;13.60;99.90
13892;DHT22;7016;48.172;8.058;2023-05-07T00:02:34;13.60;99.90
13892;DHT22;7016;48.172;8.058;2023-05-07T00:05:01;13.50;99.90
13892;DHT22;7016;48.172;8.058;2023-05-07T00:07:27;13.60;99.90
13892;DHT22;7016;48.172;8.058;2023-05-07T00:09:53;13.50;99.90
13892;DHT22;7016;48.172;8.058;2023-05-07T00:12:19;13.50;99.90
13892;DHT22;7016;48.172;8.058;2023-05-07T00:14:44;13.50;99.90
13892;DHT22;7016;48.172;8.058;2023-05-07T00:17:10;13.40;99.90
13892;DHT22;7016;48.172;8.058;2023-05-07T00:19:36;13.50;99.90
13892;DHT22;7016;48.172;8.058;2023-05-07T00:22:02;13.50;99.90
13892;DHT22;7016;48.172;8.058;2023-05-07T00:24:28;13.50;99.90
13892;DHT22;7016;48.172;8.058;2023-05-07T00:26:53;13.40;99.90
13892;DHT22;7016;48.172;8.058;2023-05-07T00:29:19;13.40;99.90
13892;DHT22;7016;48.172;8.058;2023-05-07T00:31:45;13.40;99.90
13892;DHT22;7016;48.172;8.058;2023-05-07T00:34:10;13.40;99.90
13892;DHT22;7016;48.172;8.058;2023-05-07T00:36:36;13.30;99.90
13892;DHT22;7016;48.172;8.058;2023-05-07T00:39:02;13.30;99.90
13892;DHT22;7016;48.172;8.058;2023-05-07T00:41:29;13.30;99.90
13892;DHT22;7016;48.172;8.058;2023-05-07T00:43:56;13.30;99.90
13892;DHT22;7016;48.172;8.058;2023-05-07T00:46:22;13.20;99.90
13892;DHT22;7016;48.172;8.058;2023-05-07T00:48:50;13.20;99.90
13892;DHT22;7016;48.172;8.058;2023-05-07T00:51:17;13.20;99.90
13892;DHT22;7016;48.172;8.058;2023-05-07T00:53:43;13.30;99.90
13892;DHT22;7016;48.172;8.058;2023-05-07T00:56:10;13.30;99.90
13892;DHT22;7016;48.172;8.058;2023-05-07T00:58:36;13.40;99.90
13892;DHT22;7016;48.172;8.058;2023-05-07T01:01:02;13.40;99.90
13892;DHT22;7016;48.172;8.058;2023-05-07T01:03:29;13.40;99.90
13892;DHT22;7016;48.172;8.058;2023-05-07T01:05:57;13.20;99.90
13892;DHT22;7016;48.172;8.058;2023-05-07T01:08:24;13.20;99.90
13892;DHT22;7016;48.172;8.058;2023-05-07T01:10:52;13.20;99.90
13892;DHT22;7016;48.172;8.058;2023-05-07T01:13:19;13.30;99.90
13892;DHT22;7016;48.172;8.058;2023-05-07T01:15:45;13.30;99.90
13892;DHT22;7016;48.172;8.058;2023-05-07T01:18:11;13.30;99.90
13892;DHT22;7016;48.172;8.058;2023-05-07T01:20:37;13.30;99.90
13892;DHT22;7016;48.172;8.058;2023-05-07T01:23:03;13.20;99.90
13892;DHT22;7016;48.172;8.058;2023-05-07T01:25:29;13.20;99.90
13892;DHT22;7016;48.172;8.058;2023-05-07T01:27:56;13.20;99.90
13892;DHT22;7016;48.172;8.058;2023-05-07T01:30:21;13.30;99.90
13892;DHT22;7016;48.172;8.058;2023-05-07T01:33:00;13.20;99.90
13892;DHT22;7016;48.172;8.058;2023-05-07T01:35:32;13.20;99.90
13892;DHT22;7016;48.172;8.058;2023-05-07T01:37:59;13.20;99.90
13892;DHT22;7016;48.172;8.058;2023-05-07T01:40:25;13.10;99.90
13892;DHT22;7016;48.172;8.058;2023-05-07T01:42:53;13.10;99.90
13892;DHT22;7016;48.172;8.058;2023-05-07T01:45:19;13.10;99.90
13892;DHT22;7016;48.172;8.058;2023-05-07T01:47:45;13.10;99.90
13892;DHT22;7016;48.172;8.058;2023-05-07T01:50:12;13.20;99.90
13892;DHT22;7016;48.172;8.058;2023-05-07T01:52:38;13.10;99.90
13892;DHT22;7016;48.172;8.058;2023-05-07T01:55:05;12.90;99.90
13892;DHT22;7016;48.172;8.058;2023-05-07T01:57:31;12.80;99.90
13892;DHT22;7016;48.172;8.058;2023-05-07T01:59:56;12.70;99.90
13892;DHT22;7016;48.172;8.058;2023-05-07T02:02:22;12.80;99.90
13892;DHT22;7016;48.172;8.058;2023-05-07T02:04:48;12.70;99.90
13892;DHT22;7016;48.172;8.058;2023-05-07T02:07:13;12.70;99.90
13892;DHT22;7016;48.172;8.058;2023-05-07T02:09:39;12.80;99.90
13892;DHT22;7016;48.172;8.058;2023-05-07T02:12:05;12.90;99.90
13892;DHT22;7016;48.172;8.058;2023-05-07T02:14:30;12.90;99.90
13892;DHT22;7016;48.172;8.058;2023-05-07T02:16:56;12.70;99.90
13892;DHT22;7016;48.172;8.058;2023-05-07T02:19:22;12.60;99.90
13892;DHT22;7016;48.172;8.058;2023-05-07T02:21:47;12.60;99.90
13892;DHT22;7016;48.172;8.058;2023-05-07T02:24:13;12.50;99.90
13892;DHT22;7016;48.172;8.058;2023-05-07T02:26:42;12.60;99.90
13892;DHT22;7016;48.172;8.058;2023-05-07T02:29:08;12.60;99.90
13892;DHT22;7016;48.172;8.058;2023-05-07T02:31:33;12.50;99.90
13892;DHT22;7016;48.172;8.058;2023-05-07T02:34:00;12.40;99.90
13892;DHT22;7016;48.172;8.058;2023-05-07T02:36:25;12.40;99.90
13892;DHT22;7016;48.172;8.058;2023-05-07T02:38:52;12.30;99.90
13892;DHT22;7016;48.172;8.058;2023-05-07T02:41:18;12.40;99.90
13892;DHT22;7016;48.172;8.058;2023-05-07T02:43:43;12.30;99.90
13892;DHT22;7016;48.172;8.058;2023-05-07T02:46:10;12.30;99.90
13892;DHT22;7016;48.172;8.058;2023-05-07T02:48:36;12.30;99.90
13892;DHT22;7016;48.172;8.058;2023-05-07T02:51:02;12.30;99.90
13892;DHT22;7016;48.172;8.058;2023-05-07T02:53:28;12.30;99.90
13892;DHT22;7016;48.172;8.058;2023-05-07T02:55:59;12.20;99.90
13892;DHT22;7016;48.172;8.058;2023-05-07T02:58:24;12.20;99.90
13892;DHT22;7016;48.172;8.058;2023-05-07T03:00:50;12.20;99.90
13892;DHT22;7016;48.172;8.058;2023-05-07T03:03:16;12.10;99.90
13892;DHT22;7016;48.172;8.058;2023-05-07T03:05:42;12.10;99.90
13892;DHT22;7016;48.172;8.058;2023-05-07T03:08:08;12.20;99.90
13892;DHT22;7016;48.172;8.058;2023-05-07T03:10:35;12.20;99.90
13892;DHT22;7016;48.172;8.058;2023-05-07T03:13:01;12.20;99.90
13892;DHT22;7016;48.172;8.058;2023-05-07T03:15:27;12.10;99.90
13892;DHT22;7016;48.172;8.058;2023-05-07T03:17:52;12.10;99.90
13892;DHT22;7016;48.172;8.058;2023-05-07T03:20:18;12.20;99.90
13892;DHT22;7016;48.172;8.058;2023-05-07T03:22:44;12.20;99.90
13892;DHT22;7016;48.172;8.058;2023-05-07T03:25:10;12.20;99.90
13892;DHT22;7016;48.172;8.058;2023-05-07T03:27:36;12.10;99.90
13892;DHT22;7016;48.172;8.058;2023-05-07T03:30:02;12.00;99.90
13892;DHT22;7016;48.172;8.058;2023-05-07T03:32:28;12.00;99.90
13892;DHT22;7016;48.172;8.058;2023-05-07T03:34:53;12.00;99.90
13892;DHT22;7016;48.172;8.058;2023-05-07T03:37:19;12.00;99.90
13892;DHT22;7016;48.172;8.058;2023-05-07T03:39:45;12.10;99.90
13892;DHT22;7016;48.172;8.058;2023-05-07T03:42:11;12.00;99.90
13892;DHT22;7016;48.172;8.058;2023-05-07T03:44:36;11.90;99.90
13892;DHT22;7016;48.172;8.058;2023-05-07T03:47:02;11.90;99.90
13892;DHT22;7016;48.172;8.058;2023-05-07T03:49:28;11.90;99.90
13892;DHT22;7016;48.172;8.058;2023-05-07T03:51:54;11.90;99.90
13892;DHT22;7016;48.172;8.058;2023-05-07T03:54:19;11.90;99.90
13892;DHT22;7016;48.172;8.058;2023-05-07T03:56:45;11.90;99.90
13892;DHT22;7016;48.172;8.058;2023-05-07T03:59:14;11.90;99.90
13892;DHT22;7016;48.172;8.058;2023-05-07T04:01:40;11.80;99.90
13892;DHT22;7016;48.172;8.058;2023-05-07T04:04:06;11.90;99.90
13892;DHT22;7016;48.172;8.058;2023-05-07T04:06:31;11.90;99.90
13892;DHT22;7016;48.172;8.058;2023-05-07T04:08:57;11.90;99.90
13892;DHT22;7016;48.172;8.058;2023-05-07T04:11:23;11.90;99.90
13892;DHT22;7016;48.172;8.058;2023-05-07T04:13:49;11.80;99.90
13892;DHT22;7016;48.172;8.058;2023-05-07T04:16:15;11.70;99.90
13892;DHT22;7016;48.172;8.058;2023-05-07T04:18:41;11.80;99.90
13892;DHT22;7016;48.172;8.058;2023-05-07T04:21:17;11.90;99.90
13892;DHT22;7016;48.172;8.058;2023-05-07T04:23:44;11.80;99.90
13892;DHT22;7016;48.172;8.058;2023-05-07T04:26:10;11.80;99.90
13892;DHT22;7016;48.172;8.058;2023-05-07T04:28:35;11.70;99.90
13892;DHT22;7016;48.172;8.058;2023-05-07T04:31:01;11.70;99.90
13892;DHT22;7016;48.172;8.058;2023-05-07T04:33:27;11.70;99.90
13892;DHT22;7016;48.172;8.058;2023-05-07T04:35:53;11.70;99.90
13892;DHT22;7016;48.172;8.058;2023-05-07T04:38:18;11.60;99.90
13892;DHT22;7016;48.172;8.058;2023-05-07T04:40:44;11.70;99.90
13892;DHT22;7016;48.172;8.058;2023-05-07T04:43:10;11.70;99.90
13892;DHT22;7016;48.172;8.058;2023-05-07T04:45:36;11.80;99.90
13892;DHT22;7016;48.172;8.058;2023-05-07T04:48:02;11.90;99.90
13892;DHT22;7016;48.172;8.058;2023-05-07T04:50:28;11.90;99.90
13892;DHT22;7016;48.172;8.058;2023-05-07T04:52:54;11.80;99.90
13892;DHT22;7016;48.172;8.058;2023-05-07T04:55:19;11.90;99.90
13892;DHT22;7016;48.172;8.058;2023-05-07T04:57:45;11.90;99.90
13892;DHT22;7016;48.172;8.058;2023-05-07T05:00:11;12.00;99.90
13892;DHT22;7016;48.172;8.058;2023-05-07T05:02:40;12.10;99.90
13892;DHT22;7016;48.172;8.058;2023-05-07T05:05:06;12.10;99.90
13892;DHT22;7016;48.172;8.058;2023-05-07T05:07:32;12.10;99.90
13892;DHT22;7016;48.172;8.058;2023-05-07T05:09:58;12.20;99.90
13892;DHT22;7016;48.172;8.058;2023-05-07T05:12:24;12.20;99.90
13892;DHT22;7016;48.172;8.058;2023-05-07T05:14:50;12.30;99.90
13892;DHT22;7016;48.172;8.058;2023-05-07T05:17:15;12.30;99.90
13892;DHT22;7016;48.172;8.058;2023-05-07T05:19:41;12.40;99.90
13892;DHT22;7016;48.172;8.058;2023-05-07T05:22:07;12.40;99.90
13892;DHT22;7016;48.172;8.058;2023-05-07T05:24:32;12.40;99.90
13892;DHT22;7016;48.172;8.058;2023-05-07T05:26:58;12.50;99.90
13892;DHT22;7016;48.172;8.058;2023-05-07T05:29:26;12.60;99.90
13892;DHT22;7016;48.172;8.058;2023-05-07T05:31:52;12.60;99.90
13892;DHT22;7016;48.172;8.058;2023-05-07T05:34:18;12.70;99.90
13892;DHT22;7016;48.172;8.058;2023-05-07T05:36:45;12.70;99.90
13892;DHT22;7016;48.172;8.058;2023-05-07T05:39:11;12.70;99.90
13892;DHT22;7016;48.172;8.058;2023-05-07T05:41:36;12.70;99.90
13892;DHT22;7016;48.172;8.058;2023-05-07T05:44:02;12.80;99.90
13892;DHT22;7016;48.172;8.058;2023-05-07T05:46:28;12.90;99.90
13892;DHT22;7016;48.172;8.058;2023-05-07T05:48:53;12.90;99.90
13892;DHT22;7016;48.172;8.058;2023-05-07T05:51:20;13.00;99.90
13892;DHT22;7016;48.172;8.058;2023-05-07T05:53:46;13.10;99.90
13892;DHT22;7016;48.172;8.058;2023-05-07T05:56:12;13.10;99.90
13892;DHT22;7016;48.172;8.058;2023-05-07T05:58:38;13.10;99.90
13892;DHT22;7016;48.172;8.058;2023-05-07T06:01:03;13.20;99.90
13892;DHT22;7016;48.172;8.058;2023-05-07T06:03:30;13.30;99.90
13892;DHT22;7016;48.172;8.058;2023-05-07T06:05:57;13.40;99.90
13892;DHT22;7016;48.172;8.058;2023-05-07T06:08:23;13.40;99.90
13892;DHT22;7016;48.172;8.058;2023-05-07T06:10:49;13.40;99.90
13892;DHT22;7016;48.172;8.058;2023-05-07T06:13:15;13.40;99.90
13892;DHT22;7016;48.172;8.058;2023-05-07T06:15:41;13.50;99.90
13892;DHT22;7016;48.172;8.058;2023-05-07T06:18:06;13.50;99.90
13892;DHT22;7016;48.172;8.058;2023-05-07T06:20:32;13.60;99.90
13892;DHT22;7016;48.172;8.058;2023-05-07T06:22:58;13.70;99.90
13892;DHT22;7016;48.172;8.058;2023-05-07T06:25:23;13.80;99.90
13892;DHT22;7016;48.172;8.058;2023-05-07T06:27:49;13.90;99.90
13892;DHT22;7016;48.172;8.058;2023-05-07T06:30:15;13.90;99.90
13892;DHT22;7016;48.172;8.058;2023-05-07T06:32:41;14.10;99.90
13892;DHT22;7016;48.172;8.058;2023-05-07T06:35:07;14.10;99.90
13892;DHT22;7016;48.172;8.058;2023-05-07T06:37:33;14.20;99.90
13892;DHT22;7016;48.172;8.058;2023-05-07T06:39:58;14.30;99.90
13892;DHT22;7016;48.172;8.058;2023-05-07T06:42:24;14.40;99.90
13892;DHT22;7016;48.172;8.058;2023-05-07T06:44:50;14.50;99.90
13892;DHT22;7016;48.172;8.058;2023-05-07T06:47:15;14.60;99.90
13892;DHT22;7016;48.172;8.058;2023-05-07T06:49:41;14.70;99.90
13892;DHT22;7016;48.172;8.058;2023-05-07T06:52:07;14.80;99.90
13892;DHT22;7016;48.172;8.058;2023-05-07T06:54:32;15.00;99.90
13892;DHT22;7016;48.172;8.058;2023-05-07T06:56:58;15.10;99.90
13892;DHT22;7016;48.172;8.058;2023-05-07T06:59:24;15.20;99.90
13892;DHT22;7016;48.172;8.058;2023-05-07T07:01:49;15.30;99.90
13892;DHT22;7016;48.172;8.058;2023-05-07T07:04:15;15.50;99.90
13892;DHT22;7016;48.172;8.058;2023-05-07T07:06:41;15.50;99.90
13892;DHT22;7016;48.172;8.058;2023-05-07T07:09:07;15.50;99.90
13892;DHT22;7016;48.172;8.058;2023-05-07T07:11:32;15.60;99.90
13892;DHT22;7016;48.172;8.058;2023-05-07T07:13:58;15.70;99.90
13892;DHT22;7016;48.172;8.058;2023-05-07T07:16:24;15.80;99.90
13892;DHT22;7016;48.172;8.058;2023-05-07T07:18:51;15.90;99.90
13892;DHT22;7016;48.172;8.058;2023-05-07T07:21:16;16.10;99.90
13892;DHT22;7016;48.172;8.058;2023-05-07T07:23:42;16.20;99.90
13892;DHT22;7016;48.172;8.058;2023-05-07T07:26:08;16.40;99.90
13892;DHT22;7016;48.172;8.058;2023-05-07T07:28:34;16.20;99.90
13892;DHT22;7016;48.172;8.058;2023-05-07T07:30:59;16.20;99.90
13892;DHT22;7016;48.172;8.058;2023-05-07T07:33:25;16.20;99.90
13892;DHT22;7016;48.172;8.058;2023-05-07T07:35:51;16.20;99.90
13892;DHT22;7016;48.172;8.058;2023-05-07T07:38:16;16.20;99.90
13892;DHT22;7016;48.172;8.058;2023-05-07T07:40:42;16.30;99.90
13892;DHT22;7016;48.172;8.058;2023-05-07T07:43:09;16.50;99.90
13892;DHT22;7016;48.172;8.058;2023-05-07T07:45:35;16.60;99.90
13892;DHT22;7016;48.172;8.058;2023-05-07T07:48:01;16.70;99.90
13892;DHT22;7016;48.172;8.058;2023-05-07T07:50:27;16.80;99.90
13892;DHT22;7016;48.172;8.058;2023-05-07T07:52:52;16.90;99.90
13892;DHT22;7016;48.172;8.058;2023-05-07T07:55:20;17.10;99.90
13892;DHT22;7016;48.172;8.058;2023-05-07T07:57:48;17.10;99.90
13892;DHT22;7016;48.172;8.058;2023-05-07T08:00:15;17.20;99.90
13892;DHT22;7016;48.172;8.058;2023-05-07T08:02:40;17.30;99.90
13892;DHT22;7016;48.172;8.058;2023-05-07T08:05:07;17.40;99.90
13892;DHT22;7016;48.172;8.058;2023-05-07T08:07:32;17.40;99.90
13892;DHT22;7016;48.172;8.058;2023-05-07T08:09:58;17.50;99.90
13892;DHT22;7016;48.172;8.058;2023-05-07T08:12:24;17.50;99.90
13892;DHT22;7016;48.172;8.058;2023-05-07T08:14:49;17.60;99.90
13892;DHT22;7016;48.172;8.058;2023-05-07T08:17:15;17.60;99.90
13892;DHT22;7016;48.172;8.058;2023-05-07T08:19:42;17.70;99.90
13892;DHT22;7016;48.172;8.058;2023-05-07T08:22:09;17.70;99.90
13892;DHT22;7016;48.172;8.058;2023-05-07T08:24:35;17.80;99.90
13892;DHT22;7016;48.172;8.058;2023-05-07T08:27:01;17.90;99.90
13892;DHT22;7016;48.172;8.058;2023-05-07T08:29:26;17.90;99.90
13892;DHT22;7016;48.172;8.058;2023-05-07T08:31:52;18.00;99.90
13892;DHT22;7016;48.172;8.058;2023-05-07T08:34:18;18.10;99.90
13892;DHT22;7016;48.172;8.058;2023-05-07T08:36:44;18.10;99.90
13892;DHT22;7016;48.172;8.058;2023-05-07T08:39:12;18.20;99.90
13892;DHT22;7016;48.172;8.058;2023-05-07T08:41:38;18.20;99.90
13892;DHT22;7016;48.172;8.058;2023-05-07T08:44:06;18.20;99.90
13892;DHT22;7016;48.172;8.058;2023-05-07T08:46:36;18.30;99.90
13892;DHT22;7016;48.172;8.058;2023-05-07T08:49:03;18.50;99.90
13892;DHT22;7016;48.172;8.058;2023-05-07T08:51:29;18.50;99.90
13892;DHT22;7016;48.172;8.058;2023-05-07T08:53:54;18.60;99.90
13892;DHT22;7016;48.172;8.058;2023-05-07T08:56:20;18.80;99.90
13892;DHT22;7016;48.172;8.058;2023-05-07T08:58:47;18.90;99.90
13892;DHT22;7016;48.172;8.058;2023-05-07T09:01:14;19.10;99.90
13892;DHT22;7016;48.172;8.058;2023-05-07T09:03:40;19.10;99.90
13892;DHT22;7016;48.172;8.058;2023-05-07T09:06:07;19.10;99.90
13892;DHT22;7016;48.172;8.058;2023-05-07T09:08:33;19.10;99.90
13892;DHT22;7016;48.172;8.058;2023-05-07T09:10:59;19.20;99.90
13892;DHT22;7016;48.172;8.058;2023-05-07T09:13:26;19.30;99.90
13892;DHT22;7016;48.172;8.058;2023-05-07T09:16:11;19.30;99.90
13892;DHT22;7016;48.172;8.058;2023-05-07T09:18:43;19.40;99.90
13892;DHT22;7016;48.172;8.058;2023-05-07T09:21:16;19.50;99.90
13892;DHT22;7016;48.172;8.058;2023-05-07T09:23:41;19.50;99.90
13892;DHT22;7016;48.172;8.058;2023-05-07T09:26:07;19.60;99.90
13892;DHT22;7016;48.172;8.058;2023-05-07T09:28:43;19.70;99.90
13892;DHT22;7016;48.172;8.058;2023-05-07T09:31:10;19.70;99.90
13892;DHT22;7016;48.172;8.058;2023-05-07T09:33:37;19.90;99.90
13892;DHT22;7016;48.172;8.058;2023-05-07T09:36:07;20.00;99.90
13892;DHT22;7016;48.172;8.058;2023-05-07T09:38:34;20.10;99.90
13892;DHT22;7016;48.172;8.058;2023-05-07T09:43:33;20.30;99.90
13892;DHT22;7016;48.172;8.058;2023-05-07T09:46:13;20.30;99.90
13892;DHT22;7016;48.172;8.058;2023-05-07T09:48:40;20.30;99.90
13892;DHT22;7016;48.172;8.058;2023-05-07T09:51:15;20.30;99.90
13892;DHT22;7016;48.172;8.058;2023-05-07T09:53:43;20.40;99.90
13892;DHT22;7016;48.172;8.058;2023-05-07T09:56:13;20.50;99.90
13892;DHT22;7016;48.172;8.058;2023-05-07T09:58:39;20.50;99.90
13892;DHT22;7016;48.172;8.058;2023-05-07T10:01:06;20.60;99.90
13892;DHT22;7016;48.172;8.058;2023-05-07T10:03:33;20.50;99.90
13892;DHT22;7016;48.172;8.058;2023-05-07T10:06:00;20.50;99.90
13892;DHT22;7016;48.172;8.058;2023-05-07T10:08:26;20.50;99.90
13892;DHT22;7016;48.172;8.058;2023-05-07T10:10:52;20.50;99.90
13892;DHT22;7016;48.172;8.058;2023-05-07T10:13:21;20.60;99.90
13892;DHT22;7016;48.172;8.058;2023-05-07T10:15:48;20.60;99.90
13892;DHT22;7016;48.172;8.058;2023-05-07T10:18:15;20.60;99.90
13892;DHT22;7016;48.172;8.058;2023-05-07T10:20:43;20.60;99.90
13892;DHT22;7016;48.172;8.058;2023-05-07T10:23:13;20.60;99.90
13892;DHT22;7016;48.172;8.058;2023-05-07T10:25:40;20.50;99.90
13892;DHT22;7016;48.172;8.058;2023-05-07T10:28:08;20.60;99.90
13892;DHT22;7016;48.172;8.058;2023-05-07T10:33:24;20.50;99.90
13892;DHT22;7016;48.172;8.058;2023-05-07T10:36:01;20.30;99.90
13892;DHT22;7016;48.172;8.058;2023-05-07T10:38:29;20.20;99.90
13892;DHT22;7016;48.172;8.058;2023-05-07T10:40:55;20.20;99.90
13892;DHT22;7016;48.172;8.058;2023-05-07T10:43:21;20.10;99.90
13892;DHT22;7016;48.172;8.058;2023-05-07T10:46:14;19.90;99.90
13892;DHT22;7016;48.172;8.058;2023-05-07T10:51:27;20.00;99.90
13892;DHT22;7016;48.172;8.058;2023-05-07T10:56:37;19.90;99.90
13892;DHT22;7016;48.172;8.058;2023-05-07T11:01:53;19.70;99.90
13892;DHT22;7016;48.172;8.058;2023-05-07T11:04:19;19.60;99.90
13892;DHT22;7016;48.172;8.058;2023-05-07T11:15:09;19.20;99.90
13892;DHT22;7016;48.172;8.058;2023-05-07T11:17:55;19.00;99.90
13892;DHT22;7016;48.172;8.058;2023-05-07T11:20:57;18.90;99.90
13892;DHT22;7016;48.172;8.058;2023-05-07T11:26:08;18.80;99.90
13892;DHT22;7016;48.172;8.058;2023-05-07T11:28:38;18.80;99.90
13892;DHT22;7016;48.172;8.058;2023-05-07T11:31:05;18.70;99.90
13892;DHT22;7016;48.172;8.058;2023-05-07T11:33:31;18.70;99.90
13892;DHT22;7016;48.172;8.058;2023-05-07T11:35:57;18.70;99.90
13892;DHT22;7016;48.172;8.058;2023-05-07T11:38:25;18.60;99.90
13892;DHT22;7016;48.172;8.058;2023-05-07T11:40:52;18.50;99.90
13892;DHT22;7016;48.172;8.058;2023-05-07T11:43:19;18.60;99.90
13892;DHT22;7016;48.172;8.058;2023-05-07T11:45:45;18.70;99.90
13892;DHT22;7016;48.172;8.058;2023-05-07T11:48:15;18.70;99.90
13892;DHT22;7016;48.172;8.058;2023-05-07T11:50:51;18.80;99.90
13892;DHT22;7016;48.172;8.058;2023-05-07T11:53:18;18.60;99.90
13892;DHT22;7016;48.172;8.058;2023-05-07T11:55:45;18.50;99.90
13892;DHT22;7016;48.172;8.058;2023-05-07T11:58:12;18.50;99.90
13892;DHT22;7016;48.172;8.058;2023-05-07T12:00:38;18.50;99.90
13892;DHT22;7016;48.172;8.058;2023-05-07T12:03:04;18.40;99.90
13892;DHT22;7016;48.172;8.058;2023-05-07T12:05:30;18.30;99.90
13892;DHT22;7016;48.172;8.058;2023-05-07T12:07:57;18.30;99.90
13892;DHT22;7016;48.172;8.058;2023-05-07T12:10:23;18.30;99.90
13892;DHT22;7016;48.172;8.058;2023-05-07T12:12:50;18.30;99.90
13892;DHT22;7016;48.172;8.058;2023-05-07T12:15:22;18.20;99.90
13892;DHT22;7016;48.172;8.058;2023-05-07T12:17:48;18.30;99.90
13892;DHT22;7016;48.172;8.058;2023-05-07T12:20:14;18.40;99.90
13892;DHT22;7016;48.172;8.058;2023-05-07T12:22:41;18.40;99.90
13892;DHT22;7016;48.172;8.058;2023-05-07T12:25:07;18.50;99.90
13892;DHT22;7016;48.172;8.058;2023-05-07T12:27:36;18.50;99.90
13892;DHT22;7016;48.172;8.058;2023-05-07T12:30:03;18.50;99.90
13892;DHT22;7016;48.172;8.058;2023-05-07T12:32:29;18.60;99.90
13892;DHT22;7016;48.172;8.058;2023-05-07T12:34:55;18.70;99.90
13892;DHT22;7016;48.172;8.058;2023-05-07T12:37:24;18.90;99.90
13892;DHT22;7016;48.172;8.058;2023-05-07T12:40:08;18.90;99.90
13892;DHT22;7016;48.172;8.058;2023-05-07T12:42:40;19.00;99.90
13892;DHT22;7016;48.172;8.058;2023-05-07T12:45:36;18.90;99.90
13892;DHT22;7016;48.172;8.058;2023-05-07T12:48:02;19.00;99.90
13892;DHT22;7016;48.172;8.058;2023-05-07T12:50:31;19.10;99.90
13892;DHT22;7016;48.172;8.058;2023-05-07T12:52:58;19.00;99.90
13892;DHT22;7016;48.172;8.058;2023-05-07T12:55:24;18.90;99.90
13892;DHT22;7016;48.172;8.058;2023-05-07T12:57:51;18.80;99.90
13892;DHT22;7016;48.172;8.058;2023-05-07T13:00:33;18.80;99.90
13892;DHT22;7016;48.172;8.058;2023-05-07T13:02:59;18.90;99.90
13892;DHT22;7016;48.172;8.058;2023-05-07T13:05:25;19.10;99.90
13892;DHT22;7016;48.172;8.058;2023-05-07T13:07:53;19.10;99.90
13892;DHT22;7016;48.172;8.058;2023-05-07T13:10:21;19.00;99.90
13892;DHT22;7016;48.172;8.058;2023-05-07T13:12:46;19.00;99.90
13892;DHT22;7016;48.172;8.058;2023-05-07T13:15:12;18.90;99.90
13892;DHT22;7016;48.172;8.058;2023-05-07T13:17:38;18.90;99.90
13892;DHT22;7016;48.172;8.058;2023-05-07T13:20:04;19.00;99.90
13892;DHT22;7016;48.172;8.058;2023-05-07T13:22:31;19.00;99.90
13892;DHT22;7016;48.172;8.058;2023-05-07T13:24:57;19.00;99.90
13892;DHT22;7016;48.172;8.058;2023-05-07T13:27:22;19.10;99.90
13892;DHT22;7016;48.172;8.058;2023-05-07T13:29:48;19.10;99.90
13892;DHT22;7016;48.172;8.058;2023-05-07T13:32:14;19.10;99.90
13892;DHT22;7016;48.172;8.058;2023-05-07T13:34:40;19.10;99.90
13892;DHT22;7016;48.172;8.058;2023-05-07T13:37:06;19.10;99.90
13892;DHT22;7016;48.172;8.058;2023-05-07T13:39:33;19.20;99.90
13892;DHT22;7016;48.172;8.058;2023-05-07T13:41:59;19.10;99.90
13892;DHT22;7016;48.172;8.058;2023-05-07T13:44:25;19.00;99.90
13892;DHT22;7016;48.172;8.058;2023-05-07T13:46:51;19.00;99.90
13892;DHT22;7016;48.172;8.058;2023-05-07T13:49:17;19.10;99.90
13892;DHT22;7016;48.172;8.058;2023-05-07T13:51:42;19.00;99.90
13892;DHT22;7016;48.172;8.058;2023-05-07T13:54:08;19.10;99.90
13892;DHT22;7016;48.172;8.058;2023-05-07T13:56:34;19.10;99.90
13892;DHT22;7016;48.172;8.058;2023-05-07T13:58:59;19.10;99.90
13892;DHT22;7016;48.172;8.058;2023-05-07T14:01:25;19.00;99.90
13892;DHT22;7016;48.172;8.058;2023-05-07T14:03:51;19.00;99.90
13892;DHT22;7016;48.172;8.058;2023-05-07T14:06:17;18.90;99.90
13892;DHT22;7016;48.172;8.058;2023-05-07T14:08:42;18.90;99.90
13892;DHT22;7016;48.172;8.058;2023-05-07T14:11:08;18.90;99.90
13892;DHT22;7016;48.172;8.058;2023-05-07T14:13:34;18.90;99.90
13892;DHT22;7016;48.172;8.058;2023-05-07T14:15:59;18.90;99.90
13892;DHT22;7016;48.172;8.058;2023-05-07T14:18:26;18.90;99.90
13892;DHT22;7016;48.172;8.058;2023-05-07T14:20:52;18.90;99.90
13892;DHT22;7016;48.172;8.058;2023-05-07T14:23:19;18.90;99.90
13892;DHT22;7016;48.172;8.058;2023-05-07T14:25:47;18.90;99.90
13892;DHT22;7016;48.172;8.058;2023-05-07T14:28:13;18.90;99.90
13892;DHT22;7016;48.172;8.058;2023-05-07T14:30:39;18.90;99.90
13892;DHT22;7016;48.172;8.058;2023-05-07T14:33:05;18.90;99.90
13892;DHT22;7016;48.172;8.058;2023-05-07T14:35:31;18.90;99.90
13892;DHT22;7016;48.172;8.058;2023-05-07T14:37:57;19.00;99.90
13892;DHT22;7016;48.172;8.058;2023-05-07T14:40:22;19.00;99.90
13892;DHT22;7016;48.172;8.058;2023-05-07T14:42:48;18.90;99.90
13892;DHT22;7016;48.172;8.058;2023-05-07T14:45:14;18.90;99.90
13892;DHT22;7016;48.172;8.058;2023-05-07T14:47:40;19.00;99.90
13892;DHT22;7016;48.172;8.058;2023-05-07T14:50:05;18.90;99.90
13892;DHT22;7016;48.172;8.058;2023-05-07T14:52:31;19.00;99.90
13892;DHT22;7016;48.172;8.058;2023-05-07T14:54:57;19.00;99.90
13892;DHT22;7016;48.172;8.058;2023-05-07T14:57:22;19.10;99.90
13892;DHT22;7016;48.172;8.058;2023-05-07T14:59:48;19.10;99.90
13892;DHT22;7016;48.172;8.058;2023-05-07T15:02:14;19.00;99.90
13892;DHT22;7016;48.172;8.058;2023-05-07T15:04:40;19.00;99.90
13892;DHT22;7016;48.172;8.058;2023-05-07T15:07:14;19.00;99.90
13892;DHT22;7016;48.172;8.058;2023-05-07T15:09:41;19.00;99.90
13892;DHT22;7016;48.172;8.058;2023-05-07T15:12:07;19.10;99.90
13892;DHT22;7016;48.172;8.058;2023-05-07T15:14:33;19.20;99.90
13892;DHT22;7016;48.172;8.058;2023-05-07T15:16:58;19.30;99.90
13892;DHT22;7016;48.172;8.058;2023-05-07T15:19:24;19.30;99.90
13892;DHT22;7016;48.172;8.058;2023-05-07T15:21:55;19.30;99.90
13892;DHT22;7016;48.172;8.058;2023-05-07T15:24:22;19.30;99.90
13892;DHT22;7016;48.172;8.058;2023-05-07T15:26:48;19.30;99.90
13892;DHT22;7016;48.172;8.058;2023-05-07T15:29:14;19.30;99.90
13892;DHT22;7016;48.172;8.058;2023-05-07T15:31:40;19.30;99.90
13892;DHT22;7016;48.172;8.058;2023-05-07T15:34:05;19.20;99.90
13892;DHT22;7016;48.172;8.058;2023-05-07T15:36:31;19.10;99.90
13892;DHT22;7016;48.172;8.058;2023-05-07T15:38:58;19.20;99.90
13892;DHT22;7016;48.172;8.058;2023-05-07T15:41:24;19.20;99.90
13892;DHT22;7016;48.172;8.058;2023-05-07T15:43:51;19.20;99.90
13892;DHT22;7016;48.172;8.058;2023-05-07T15:46:19;19.20;99.90
13892;DHT22;7016;48.172;8.058;2023-05-07T15:48:45;19.10;99.90
13892;DHT22;7016;48.172;8.058;2023-05-07T15:51:11;19.20;99.90
13892;DHT22;7016;48.172;8.058;2023-05-07T15:53:37;19.20;99.90
13892;DHT22;7016;48.172;8.058;2023-05-07T15:56:04;19.20;99.90
13892;DHT22;7016;48.172;8.058;2023-05-07T15:58:30;19.20;99.90
13892;DHT22;7016;48.172;8.058;2023-05-07T16:00:55;19.10;99.90
13892;DHT22;7016;48.172;8.058;2023-05-07T16:03:22;19.20;99.90
13892;DHT22;7016;48.172;8.058;2023-05-07T16:05:48;19.30;99.90